sensor_id;sensor_type;location;lat;lon;timestamp;P1;durP1;ratioP1;P2;durP2;ratioP2
57307;SDS011;43152;50.968;18.214;2023-11-21T00:00:23;26.80;;;11.50;;
57307;SDS011;43152;50.968;18.214;2023-11-21T00:10:06;9.10;;;4.00;;
57307;SDS011;43152;50.968;18.214;2023-11-21T00:19:50;6.00;;;2.70;;
57307;SDS011;43152;50.968;18.214;2023-11-21T00:29:33;6.00;;;2.30;;
57307;SDS011;43152;50.968;18.214;2023-11-21T00:39:15;8.00;;;2.90;;
57307;SDS011;43152;50.968;18.214;2023-11-21T00:48:58;10.20;;;4.10;;
57307;SDS011;43152;50.968;18.214;2023-11-21T00:58:40;47.00;;;16.20;;
57307;SDS011;43152;50.968;18.214;2023-11-21T01:08:28;9.30;;;3.40;;
57307;SDS011;43152;50.968;18.214;2023-11-21T01:18:11;4.00;;;1.50;;
57307;SDS011;43152;50.968;18.214;2023-11-21T01:27:53;2.70;;;0.80;;
57307;SDS011;43152;50.968;18.214;2023-11-21T01:37:38;43.50;;;15.00;;
57307;SDS011;43152;50.968;18.214;2023-11-21T01:47:30;15.00;;;5.50;;
57307;SDS011;43152;50.968;18.214;2023-11-21T01:57:13;6.50;;;2.50;;
57307;SDS011;43152;50.968;18.214;2023-11-21T02:06:59;15.80;;;4.10;;
57307;SDS011;43152;50.968;18.214;2023-11-21T02:16:45;17.70;;;6.50;;
57307;SDS011;43152;50.968;18.214;2023-11-21T02:26:32;10.30;;;4.20;;
57307;SDS011;43152;50.968;18.214;2023-11-21T02:36:14;6.00;;;2.00;;
57307;SDS011;43152;50.968;18.214;2023-11-21T02:45:56;54.00;;;13.40;;
57307;SDS011;43152;50.968;18.214;2023-11-21T02:55:41;92.40;;;28.60;;
57307;SDS011;43152;50.968;18.214;2023-11-21T03:05:23;36.70;;;16.70;;
57307;SDS011;43152;50.968;18.214;2023-11-21T03:15:06;12.00;;;3.90;;
57307;SDS011;43152;50.968;18.214;2023-11-21T03:24:50;4.20;;;2.30;;
57307;SDS011;43152;50.968;18.214;2023-11-21T03:34:32;6.70;;;1.60;;
57307;SDS011;43152;50.968;18.214;2023-11-21T03:44:17;7.00;;;2.60;;
57307;SDS011;43152;50.968;18.214;2023-11-21T03:54:02;14.10;;;3.40;;
57307;SDS011;43152;50.968;18.214;2023-11-21T04:03:48;23.20;;;6.30;;
57307;SDS011;43152;50.968;18.214;2023-11-21T04:13:30;14.00;;;4.60;;
57307;SDS011;43152;50.968;18.214;2023-11-21T04:23:13;6.50;;;1.80;;
57307;SDS011;43152;50.968;18.214;2023-11-21T04:32:58;12.40;;;6.00;;
57307;SDS011;43152;50.968;18.214;2023-11-21T04:42:42;9.00;;;3.60;;
57307;SDS011;43152;50.968;18.214;2023-11-21T04:52:28;37.30;;;14.00;;
57307;SDS011;43152;50.968;18.214;2023-11-21T05:02:14;32.60;;;17.30;;
57307;SDS011;43152;50.968;18.214;2023-11-21T05:11:57;23.60;;;11.70;;
57307;SDS011;43152;50.968;18.214;2023-11-21T05:21:42;14.00;;;6.10;;
57307;SDS011;43152;50.968;18.214;2023-11-21T05:31:24;4.00;;;2.10;;
57307;SDS011;43152;50.968;18.214;2023-11-21T05:41:07;7.80;;;3.00;;
57307;SDS011;43152;50.968;18.214;2023-11-21T05:50:52;13.70;;;6.20;;
57307;SDS011;43152;50.968;18.214;2023-11-21T06:00:34;9.40;;;3.80;;
57307;SDS011;43152;50.968;18.214;2023-11-21T06:10:19;9.80;;;3.00;;
57307;SDS011;43152;50.968;18.214;2023-11-21T06:20:06;8.50;;;3.00;;
57307;SDS011;43152;50.968;18.214;2023-11-21T06:29:57;7.00;;;2.90;;
57307;SDS011;43152;50.968;18.214;2023-11-21T06:39:40;6.10;;;2.10;;
57307;SDS011;43152;50.968;18.214;2023-11-21T06:49:24;10.90;;;2.90;;
57307;SDS011;43152;50.968;18.214;2023-11-21T06:59:08;6.10;;;1.40;;
57307;SDS011;43152;50.968;18.214;2023-11-21T07:16:16;9.10;;;2.60;;
57307;SDS011;43152;50.968;18.214;2023-11-21T07:25:59;13.40;;;3.20;;
57307;SDS011;43152;50.968;18.214;2023-11-21T07:48:31;20.80;;;5.80;;
57307;SDS011;43152;50.968;18.214;2023-11-21T07:58:16;32.90;;;7.20;;
57307;SDS011;43152;50.968;18.214;2023-11-21T08:07:58;69.40;;;15.90;;
57307;SDS011;43152;50.968;18.214;2023-11-21T08:17:41;61.80;;;17.50;;
57307;SDS011;43152;50.968;18.214;2023-11-21T08:27:25;46.40;;;13.50;;
57307;SDS011;43152;50.968;18.214;2023-11-21T08:37:10;30.80;;;11.30;;
57307;SDS011;43152;50.968;18.214;2023-11-21T08:46:55;22.10;;;4.30;;
57307;SDS011;43152;50.968;18.214;2023-11-21T08:56:37;15.90;;;5.60;;
57307;SDS011;43152;50.968;18.214;2023-11-21T09:09:25;17.00;;;5.60;;
57307;SDS011;43152;50.968;18.214;2023-11-21T09:19:09;11.90;;;4.10;;
57307;SDS011;43152;50.968;18.214;2023-11-21T09:28:52;14.70;;;5.40;;
57307;SDS011;43152;50.968;18.214;2023-11-21T09:38:40;18.80;;;6.40;;
57307;SDS011;43152;50.968;18.214;2023-11-21T09:48:29;9.80;;;4.20;;
57307;SDS011;43152;50.968;18.214;2023-11-21T09:58:18;12.50;;;6.70;;
57307;SDS011;43152;50.968;18.214;2023-11-21T10:08:10;22.60;;;9.50;;
57307;SDS011;43152;50.968;18.214;2023-11-21T10:13:03;48.20;;;23.60;;
57307;SDS011;43152;50.968;18.214;2023-11-21T10:22:54;38.00;;;13.90;;
57307;SDS011;43152;50.968;18.214;2023-11-21T10:32:41;45.70;;;20.50;;
57307;SDS011;43152;50.968;18.214;2023-11-21T10:42:32;44.00;;;18.80;;
57307;SDS011;43152;50.968;18.214;2023-11-21T10:52:14;60.90;;;22.40;;
57307;SDS011;43152;50.968;18.214;2023-11-21T11:01:59;41.70;;;18.10;;
57307;SDS011;43152;50.968;18.214;2023-11-21T11:11:46;43.40;;;17.30;;
57307;SDS011;43152;50.968;18.214;2023-11-21T11:32:05;39.50;;;13.10;;
57307;SDS011;43152;50.968;18.214;2023-11-21T11:42:15;20.50;;;10.80;;
57307;SDS011;43152;50.968;18.214;2023-11-21T11:52:32;35.10;;;13.10;;
57307;SDS011;43152;50.968;18.214;2023-11-21T12:02:41;19.70;;;6.90;;
57307;SDS011;43152;50.968;18.214;2023-11-21T12:12:58;42.80;;;15.30;;
57307;SDS011;43152;50.968;18.214;2023-11-21T12:22:47;38.30;;;14.20;;
57307;SDS011;43152;50.968;18.214;2023-11-21T12:32:42;47.70;;;17.50;;
57307;SDS011;43152;50.968;18.214;2023-11-21T12:42:44;35.90;;;13.50;;
57307;SDS011;43152;50.968;18.214;2023-11-21T12:52:41;38.50;;;14.40;;
57307;SDS011;43152;50.968;18.214;2023-11-21T13:02:36;15.70;;;5.80;;
57307;SDS011;43152;50.968;18.214;2023-11-21T13:12:44;27.60;;;11.90;;
57307;SDS011;43152;50.968;18.214;2023-11-21T13:22:35;37.40;;;12.40;;
57307;SDS011;43152;50.968;18.214;2023-11-21T13:32:25;35.60;;;14.80;;
57307;SDS011;43152;50.968;18.214;2023-11-21T13:42:15;28.90;;;11.40;;
57307;SDS011;43152;50.968;18.214;2023-11-21T13:52:06;25.80;;;10.90;;
57307;SDS011;43152;50.968;18.214;2023-11-21T14:01:53;11.60;;;5.60;;
57307;SDS011;43152;50.968;18.214;2023-11-21T14:12:17;8.10;;;4.30;;
57307;SDS011;43152;50.968;18.214;2023-11-21T14:22:05;33.10;;;14.90;;
57307;SDS011;43152;50.968;18.214;2023-11-21T14:31:50;22.60;;;10.20;;
57307;SDS011;43152;50.968;18.214;2023-11-21T14:41:46;31.40;;;11.80;;
57307;SDS011;43152;50.968;18.214;2023-11-21T14:51:52;31.80;;;17.00;;
57307;SDS011;43152;50.968;18.214;2023-11-21T15:02:08;29.30;;;14.70;;
57307;SDS011;43152;50.968;18.214;2023-11-21T15:11:58;22.90;;;6.70;;
57307;SDS011;43152;50.968;18.214;2023-11-21T15:21:57;24.60;;;12.30;;
57307;SDS011;43152;50.968;18.214;2023-11-21T15:31:41;27.40;;;13.70;;
57307;SDS011;43152;50.968;18.214;2023-11-21T15:41:30;29.30;;;15.80;;
57307;SDS011;43152;50.968;18.214;2023-11-21T15:51:19;52.30;;;22.20;;
57307;SDS011;43152;50.968;18.214;2023-11-21T16:01:10;44.70;;;20.70;;
57307;SDS011;43152;50.968;18.214;2023-11-21T16:10:55;48.60;;;25.60;;
57307;SDS011;43152;50.968;18.214;2023-11-21T16:20:38;32.90;;;14.00;;
57307;SDS011;43152;50.968;18.214;2023-11-21T16:30:23;38.00;;;16.20;;
57307;SDS011;43152;50.968;18.214;2023-11-21T16:40:08;43.10;;;18.60;;
57307;SDS011;43152;50.968;18.214;2023-11-21T16:49:58;39.30;;;20.00;;
57307;SDS011;43152;50.968;18.214;2023-11-21T16:59:42;50.30;;;21.40;;
57307;SDS011;43152;50.968;18.214;2023-11-21T17:09:34;58.40;;;22.00;;
57307;SDS011;43152;50.968;18.214;2023-11-21T17:19:19;42.70;;;21.50;;
57307;SDS011;43152;50.968;18.214;2023-11-21T17:29:02;31.60;;;15.00;;
57307;SDS011;43152;50.968;18.214;2023-11-21T17:38:45;30.10;;;14.70;;
57307;SDS011;43152;50.968;18.214;2023-11-21T17:48:31;63.70;;;30.40;;
57307;SDS011;43152;50.968;18.214;2023-11-21T17:58:15;57.70;;;24.00;;
57307;SDS011;43152;50.968;18.214;2023-11-21T18:08:04;55.60;;;25.70;;
57307;SDS011;43152;50.968;18.214;2023-11-21T18:17:50;58.60;;;25.00;;
57307;SDS011;43152;50.968;18.214;2023-11-21T18:27:33;29.70;;;14.60;;
57307;SDS011;43152;50.968;18.214;2023-11-21T18:44:34;41.50;;;18.70;;
57307;SDS011;43152;50.968;18.214;2023-11-21T18:54:16;48.80;;;23.40;;
57307;SDS011;43152;50.968;18.214;2023-11-21T19:04:01;48.60;;;18.10;;
57307;SDS011;43152;50.968;18.214;2023-11-21T19:13:47;47.30;;;21.80;;
57307;SDS011;43152;50.968;18.214;2023-11-21T19:23:44;45.80;;;20.30;;
57307;SDS011;43152;50.968;18.214;2023-11-21T19:33:28;72.90;;;32.90;;
57307;SDS011;43152;50.968;18.214;2023-11-21T19:43:11;60.80;;;25.40;;
57307;SDS011;43152;50.968;18.214;2023-11-21T19:52:59;52.20;;;22.90;;
57307;SDS011;43152;50.968;18.214;2023-11-21T20:02:41;66.50;;;24.70;;
57307;SDS011;43152;50.968;18.214;2023-11-21T20:12:25;57.00;;;25.20;;
57307;SDS011;43152;50.968;18.214;2023-11-21T20:22:09;88.60;;;37.90;;
57307;SDS011;43152;50.968;18.214;2023-11-21T20:31:59;45.40;;;18.40;;
57307;SDS011;43152;50.968;18.214;2023-11-21T20:41:43;49.30;;;23.10;;
57307;SDS011;43152;50.968;18.214;2023-11-21T20:51:34;56.40;;;25.10;;
57307;SDS011;43152;50.968;18.214;2023-11-21T21:01:17;57.10;;;25.70;;
57307;SDS011;43152;50.968;18.214;2023-11-21T21:11:03;56.10;;;25.70;;
57307;SDS011;43152;50.968;18.214;2023-11-21T21:29:34;55.60;;;24.90;;
57307;SDS011;43152;50.968;18.214;2023-11-21T21:39:17;34.30;;;14.10;;
57307;SDS011;43152;50.968;18.214;2023-11-21T21:48:59;52.00;;;23.90;;
57307;SDS011;43152;50.968;18.214;2023-11-21T21:58:45;45.20;;;19.40;;
57307;SDS011;43152;50.968;18.214;2023-11-21T22:08:27;57.20;;;25.10;;
57307;SDS011;43152;50.968;18.214;2023-11-21T22:18:10;67.70;;;30.00;;
57307;SDS011;43152;50.968;18.214;2023-11-21T22:27:54;69.90;;;27.40;;
57307;SDS011;43152;50.968;18.214;2023-11-21T22:37:47;60.00;;;26.40;;
57307;SDS011;43152;50.968;18.214;2023-11-21T22:47:30;62.90;;;27.40;;
57307;SDS011;43152;50.968;18.214;2023-11-21T22:57:15;59.70;;;31.60;;
57307;SDS011;43152;50.968;18.214;2023-11-21T23:21:24;54.90;;;20.40;;
57307;SDS011;43152;50.968;18.214;2023-11-21T23:31:10;69.60;;;25.70;;
57307;SDS011;43152;50.968;18.214;2023-11-21T23:40:52;56.50;;;25.50;;
57307;SDS011;43152;50.968;18.214;2023-11-21T23:50:37;71.60;;;26.80;;
